createdAt,value
2022-12-01T00:01:22.042Z,2.40
2022-12-01T00:03:49.106Z,2.30
2022-12-01T00:06:20.096Z,2.20
2022-12-01T00:09:07.733Z,2.20
2022-12-01T00:11:37.109Z,2.30
2022-12-01T00:14:04.678Z,2.20
2022-12-01T00:16:32.731Z,2.20
2022-12-01T00:18:59.817Z,2.10
2022-12-01T00:21:27.868Z,2.20
2022-12-01T00:23:58.018Z,2.00
2022-12-01T00:26:26.325Z,2.10
2022-12-01T00:28:59.244Z,1.90
2022-12-01T00:31:26.916Z,1.80
2022-12-01T00:33:54.678Z,1.80
2022-12-01T00:36:22.444Z,1.80
2022-12-01T00:38:56.034Z,1.70
2022-12-01T00:41:25.190Z,1.70
2022-12-01T00:43:52.314Z,1.70
2022-12-01T00:46:19.305Z,1.60
2022-12-01T00:51:13.728Z,1.50
2022-12-01T00:53:40.633Z,1.50
2022-12-01T00:56:07.812Z,1.40
2022-12-01T01:01:03.285Z,1.40
2022-12-01T01:03:32.558Z,1.40
2022-12-01T01:06:11.603Z,1.40
2022-12-01T01:08:39.202Z,1.40
2022-12-01T01:13:35.803Z,1.30
2022-12-01T01:16:28.150Z,1.20
2022-12-01T01:18:55.857Z,1.30
2022-12-01T01:21:26.037Z,1.20
2022-12-01T01:23:54.833Z,1.20
2022-12-01T01:26:31.467Z,1.20
2022-12-01T01:29:02.491Z,1.20
2022-12-01T01:31:31.159Z,1.20
2022-12-01T01:33:58.903Z,1.00
2022-12-01T01:36:27.096Z,1.00
2022-12-01T01:38:56.832Z,0.90
2022-12-01T01:41:24.188Z,1.00
2022-12-01T01:43:57.579Z,1.10
2022-12-01T01:46:30.914Z,1.10
2022-12-01T01:49:12.152Z,1.10
2022-12-01T01:51:49.599Z,1.10
2022-12-01T01:54:29.564Z,1.20
2022-12-01T01:56:57.830Z,1.10
2022-12-01T01:59:30.247Z,1.10
2022-12-01T02:02:10.626Z,1.10
2022-12-01T02:04:46.196Z,1.10
2022-12-01T02:07:18.550Z,1.10
2022-12-01T02:09:46.109Z,1.10
2022-12-01T02:12:34.830Z,1.20
2022-12-01T02:15:19.695Z,1.10
2022-12-01T02:18:03.023Z,1.10
2022-12-01T02:21:00.489Z,1.10
2022-12-01T02:24:06.599Z,1.00
2022-12-01T02:26:59.724Z,1.10
2022-12-01T02:29:59.480Z,1.10
2022-12-01T02:32:47.471Z,1.10
2022-12-01T02:35:41.831Z,1.10
2022-12-01T02:38:39.052Z,1.10
2022-12-01T02:41:23.734Z,1.10
2022-12-01T02:44:18.724Z,1.00
2022-12-01T02:47:11.872Z,1.00
2022-12-01T02:49:48.332Z,1.00
2022-12-01T02:52:17.240Z,1.00
2022-12-01T02:54:45.865Z,1.00
2022-12-01T02:57:14.982Z,0.90
2022-12-01T02:59:47.288Z,0.90
2022-12-01T03:02:49.454Z,0.90
2022-12-01T03:05:42.922Z,0.90
2022-12-01T03:08:23.886Z,0.90
2022-12-01T03:10:59.681Z,0.80
2022-12-01T03:14:24.655Z,0.90
2022-12-01T03:16:54.009Z,0.90
2022-12-01T03:19:34.863Z,0.90
2022-12-01T03:22:14.738Z,0.90
2022-12-01T03:24:46.861Z,0.90
2022-12-01T03:27:18.943Z,0.90
2022-12-01T03:29:51.192Z,0.90
2022-12-01T03:32:29.628Z,0.90
2022-12-01T03:35:16.245Z,1.00
2022-12-01T03:38:03.984Z,1.00
2022-12-01T03:40:32.996Z,1.00
2022-12-01T03:43:15.570Z,0.90
2022-12-01T03:46:11.158Z,1.00
2022-12-01T03:48:39.847Z,0.90
2022-12-01T03:51:23.352Z,1.00
2022-12-01T03:54:03.518Z,0.90
2022-12-01T03:56:37.206Z,0.90
2022-12-01T03:59:06.360Z,0.90
2022-12-01T04:01:34.231Z,0.90
2022-12-01T04:04:12.942Z,0.90
2022-12-01T04:06:42.737Z,0.80
2022-12-01T04:11:55.260Z,0.80
2022-12-01T04:14:22.366Z,0.80
2022-12-01T04:16:49.360Z,0.80
2022-12-01T04:21:44.051Z,0.80
2022-12-01T04:24:12.769Z,0.80
2022-12-01T04:26:39.990Z,0.80
2022-12-01T04:29:09.987Z,0.80
2022-12-01T04:31:37.441Z,0.80
2022-12-01T04:34:04.806Z,0.70
2022-12-01T04:36:34.396Z,0.80
2022-12-01T04:39:02.888Z,0.70
2022-12-01T04:46:25.284Z,0.70
2022-12-01T04:51:19.805Z,0.90
2022-12-01T04:56:14.191Z,1.00
2022-12-01T05:01:13.528Z,1.10
2022-12-01T05:03:43.879Z,1.10
2022-12-01T05:06:21.547Z,1.20
2022-12-01T05:08:49.484Z,1.10
2022-12-01T05:11:18.168Z,1.20
2022-12-01T05:13:48.107Z,1.10
2022-12-01T05:16:21.354Z,2.30
2022-12-01T05:18:51.242Z,1.00
2022-12-01T05:21:18.655Z,1.00
2022-12-01T05:31:08.164Z,1.00
2022-12-01T05:33:35.098Z,1.00
2022-12-01T05:40:57.027Z,0.90
2022-12-01T05:53:19.764Z,0.90
2022-12-01T05:55:46.892Z,0.90
2022-12-01T05:58:13.845Z,0.80
2022-12-01T06:00:45.751Z,0.80
2022-12-01T06:03:14.149Z,0.80
2022-12-01T06:05:41.327Z,0.90
2022-12-01T06:18:01.139Z,0.80
2022-12-01T06:20:28.385Z,0.80
2022-12-01T06:27:50.290Z,0.80
2022-12-01T06:32:44.652Z,0.80
2022-12-01T06:40:07.780Z,0.90
2022-12-01T06:47:29.798Z,0.90
2022-12-01T07:02:15.259Z,1.00
2022-12-01T07:04:42.417Z,1.00
2022-12-01T07:07:10.074Z,1.10
2022-12-01T07:16:59.603Z,2.60
2022-12-01T07:26:49.015Z,1.40
2022-12-01T07:34:15.700Z,1.40
2022-12-01T07:36:42.613Z,1.50
2022-12-01T07:39:09.641Z,1.50
2022-12-01T07:41:36.711Z,1.50
2022-12-01T07:44:04.026Z,1.50
2022-12-01T07:46:31.382Z,1.60
2022-12-01T07:48:59.477Z,1.60
2022-12-01T07:51:27.732Z,1.70
2022-12-01T07:53:55.828Z,1.80
2022-12-01T07:56:23.881Z,1.70
2022-12-01T07:58:51.431Z,1.80
2022-12-01T08:01:22.712Z,1.80
2022-12-01T08:03:52.182Z,1.90
2022-12-01T08:06:19.817Z,1.90
2022-12-01T08:08:47.658Z,1.90
2022-12-01T08:11:24.927Z,1.90
2022-12-01T08:13:55.431Z,1.90
2022-12-01T08:16:24.440Z,1.90
2022-12-01T08:18:52.075Z,2.10
2022-12-01T08:21:21.904Z,2.10
2022-12-01T08:23:53.267Z,2.20
2022-12-01T08:26:21.360Z,2.20
2022-12-01T08:28:48.683Z,2.30
2022-12-01T08:31:26.076Z,2.40
2022-12-01T08:33:53.476Z,2.40
2022-12-01T08:36:21.875Z,2.50
2022-12-01T08:38:52.344Z,2.60
2022-12-01T08:41:20.312Z,2.60
2022-12-01T08:43:58.039Z,2.70
2022-12-01T08:46:28.539Z,3.10
2022-12-01T08:48:57.513Z,3.10
2022-12-01T08:51:25.669Z,3.30
2022-12-01T08:53:52.668Z,3.50
2022-12-01T08:56:29.039Z,3.70
2022-12-01T08:58:56.506Z,4.40
2022-12-01T09:01:25.678Z,4.10
2022-12-01T09:04:05.987Z,4.30
2022-12-01T09:06:39.770Z,4.50
2022-12-01T09:09:09.105Z,4.70
2022-12-01T09:11:36.202Z,4.90
2022-12-01T09:14:03.204Z,5.10
2022-12-01T09:16:30.417Z,7.80
2022-12-01T09:18:57.486Z,5.50
2022-12-01T09:21:28.308Z,5.70
2022-12-01T09:23:55.337Z,5.90
2022-12-01T09:26:22.991Z,6.00
2022-12-01T09:28:54.348Z,6.10
2022-12-01T09:31:23.619Z,6.20
2022-12-01T09:34:00.702Z,9.20
2022-12-01T09:36:30.053Z,6.40
2022-12-01T09:38:57.074Z,6.40
2022-12-01T09:41:33.341Z,6.50
2022-12-01T09:44:30.272Z,6.60
2022-12-01T09:47:26.595Z,6.70
2022-12-01T09:50:14.316Z,6.90
2022-12-01T09:52:52.093Z,7.00
2022-12-01T09:55:24.507Z,6.90
2022-12-01T09:57:54.863Z,7.00
2022-12-01T10:00:29.520Z,7.00
2022-12-01T10:03:33.057Z,7.00
2022-12-01T10:06:27.132Z,7.10
2022-12-01T10:09:16.494Z,7.00
2022-12-01T10:11:44.822Z,7.10
2022-12-01T10:14:20.516Z,9.30
2022-12-01T10:17:11.967Z,9.30
2022-12-01T10:20:17.569Z,7.30
2022-12-01T10:23:09.161Z,7.30
2022-12-01T10:26:09.809Z,7.40
2022-12-01T10:28:48.885Z,7.40
2022-12-01T10:31:26.628Z,7.50
2022-12-01T10:34:03.418Z,8.20
2022-12-01T10:36:33.396Z,7.70
2022-12-01T10:39:02.520Z,9.40
2022-12-01T10:41:33.940Z,9.20
2022-12-01T10:44:05.447Z,8.10
2022-12-01T10:46:50.550Z,8.10
2022-12-01T10:49:19.459Z,8.30
2022-12-01T10:51:56.815Z,8.40
2022-12-01T10:54:36.222Z,8.60
2022-12-01T10:57:04.316Z,11.30
2022-12-01T10:59:38.220Z,8.90
2022-12-01T11:02:16.252Z,9.00
2022-12-01T11:04:51.846Z,9.30
2022-12-01T11:07:27.720Z,11.40
2022-12-01T11:10:35.323Z,9.80
2022-12-01T11:13:23.434Z,10.10
2022-12-01T11:15:58.832Z,10.30
2022-12-01T11:18:34.630Z,10.60
2022-12-01T11:21:26.490Z,10.80
2022-12-01T11:23:55.999Z,11.00
2022-12-01T11:26:28.540Z,13.30
2022-12-01T11:29:07.117Z,11.40
2022-12-01T11:31:42.548Z,13.60
2022-12-01T11:34:24.583Z,12.90
2022-12-01T11:37:25.527Z,13.70
2022-12-01T11:39:53.075Z,12.20
2022-12-01T11:42:30.453Z,13.60
2022-12-01T11:45:27.241Z,12.90
2022-12-01T11:48:17.420Z,12.60
2022-12-01T11:51:01.496Z,12.60
2022-12-01T11:53:32.208Z,15.40
2022-12-01T11:56:28.843Z,12.40
2022-12-01T11:59:06.004Z,12.40
2022-12-01T12:01:44.205Z,12.20
2022-12-01T12:04:31.648Z,12.10
2022-12-01T12:07:13.325Z,11.90
2022-12-01T12:10:14.018Z,11.70
2022-12-01T12:13:27.706Z,11.70
2022-12-01T12:16:13.984Z,11.40
2022-12-01T12:19:13.764Z,11.30
2022-12-01T12:22:15.976Z,11.20
2022-12-01T12:25:20.351Z,11.10
2022-12-01T12:28:20.378Z,11.00
2022-12-01T12:31:29.667Z,10.90
2022-12-01T12:34:23.195Z,10.80
2022-12-01T12:37:42.934Z,10.80
2022-12-01T12:40:42.000Z,10.80
2022-12-01T12:43:57.446Z,11.00
2022-12-01T12:47:05.091Z,10.70
2022-12-01T12:49:41.640Z,10.60
2022-12-01T12:52:19.375Z,10.80
2022-12-01T12:55:10.556Z,10.40
2022-12-01T12:57:53.192Z,10.70
2022-12-01T13:00:29.399Z,13.10
2022-12-01T13:03:07.165Z,10.30
2022-12-01T13:05:43.872Z,10.30
2022-12-01T13:08:40.470Z,12.60
2022-12-01T13:11:30.967Z,10.40
2022-12-01T13:14:06.534Z,12.20
2022-12-01T13:16:55.932Z,12.80
2022-12-01T13:19:37.313Z,11.40
2022-12-01T13:22:07.336Z,11.20
2022-12-01T13:24:34.557Z,11.30
2022-12-01T13:27:11.510Z,13.50
2022-12-01T13:29:44.365Z,11.60
2022-12-01T13:32:40.259Z,14.40
2022-12-01T13:35:38.275Z,11.70
2022-12-01T13:38:17.940Z,11.80
2022-12-01T13:40:45.021Z,12.80
2022-12-01T13:43:22.068Z,11.70
2022-12-01T13:45:50.245Z,12.20
2022-12-01T13:48:56.725Z,11.30
2022-12-01T13:51:26.050Z,12.80
2022-12-01T13:54:00.480Z,10.80
2022-12-01T13:56:39.409Z,10.60
2022-12-01T14:00:00.852Z,10.30
2022-12-01T14:02:32.855Z,10.10
2022-12-01T14:05:24.861Z,9.90
2022-12-01T14:07:53.621Z,9.70
2022-12-01T14:10:31.824Z,9.50
2022-12-01T14:13:05.909Z,9.30
2022-12-01T14:15:43.601Z,9.10
2022-12-01T14:18:38.647Z,9.00
2022-12-01T14:21:09.556Z,8.90
2022-12-01T14:24:02.713Z,8.70
2022-12-01T14:26:31.239Z,8.60
2022-12-01T14:29:01.119Z,10.20
2022-12-01T14:31:33.964Z,10.50
2022-12-01T14:34:18.840Z,8.30
2022-12-01T14:36:55.007Z,8.10
2022-12-01T14:39:36.616Z,8.00
2022-12-01T14:42:11.877Z,7.80
2022-12-01T14:44:48.452Z,7.70
2022-12-01T14:47:30.503Z,7.60
2022-12-01T14:50:12.588Z,7.60
2022-12-01T14:52:45.521Z,7.50
2022-12-01T14:55:46.424Z,7.40
2022-12-01T14:58:30.899Z,7.30
2022-12-01T15:01:11.153Z,7.20
2022-12-01T15:03:50.624Z,7.40
2022-12-01T15:06:23.159Z,6.90
2022-12-01T15:12:00.244Z,6.70
2022-12-01T15:14:49.229Z,6.50
2022-12-01T15:17:34.672Z,6.40
2022-12-01T15:20:01.886Z,6.40
2022-12-01T15:22:34.249Z,6.30
2022-12-01T15:25:35.240Z,6.20
2022-12-01T15:28:21.439Z,6.00
2022-12-01T15:30:51.841Z,7.70
2022-12-01T15:33:37.329Z,5.80
2022-12-01T15:36:05.569Z,5.80
2022-12-01T15:38:36.679Z,5.80
2022-12-01T15:41:28.611Z,8.60
2022-12-01T15:44:03.440Z,5.70
2022-12-01T15:46:34.525Z,5.60
2022-12-01T15:49:17.086Z,5.50
2022-12-01T15:51:44.726Z,5.50
2022-12-01T15:54:21.744Z,5.40
2022-12-01T15:56:55.796Z,5.40
2022-12-01T15:59:41.206Z,5.30
2022-12-01T16:02:20.393Z,5.30
2022-12-01T16:04:49.215Z,5.20
2022-12-01T16:07:16.475Z,5.30
2022-12-01T16:09:57.157Z,5.10
2022-12-01T16:12:33.013Z,5.20
2022-12-01T16:15:10.342Z,5.10
2022-12-01T16:17:50.815Z,5.10
2022-12-01T16:20:32.085Z,5.00
2022-12-01T16:23:03.465Z,5.00
2022-12-01T16:25:42.147Z,4.90
2022-12-01T16:28:30.363Z,4.90
2022-12-01T16:30:57.700Z,4.70
2022-12-01T16:33:27.346Z,4.70
2022-12-01T16:35:54.660Z,4.60
2022-12-01T16:38:28.299Z,4.60
2022-12-01T16:40:59.343Z,4.50
2022-12-01T16:43:28.675Z,4.50
2022-12-01T16:46:01.785Z,4.40
2022-12-01T16:48:29.399Z,4.30
2022-12-01T16:50:57.596Z,4.30
2022-12-01T16:53:24.543Z,4.30
2022-12-01T16:55:56.040Z,4.20
2022-12-01T16:58:25.380Z,4.20
2022-12-01T17:00:52.870Z,4.10
2022-12-01T17:03:23.551Z,4.20
2022-12-01T17:05:52.169Z,4.10
2022-12-01T17:08:20.111Z,4.10
2022-12-01T17:10:50.428Z,4.10
2022-12-01T17:13:23.442Z,4.00
2022-12-01T17:15:53.695Z,3.90
2022-12-01T17:18:22.757Z,3.90
2022-12-01T17:21:12.508Z,3.90
2022-12-01T17:23:39.889Z,3.90
2022-12-01T17:26:13.284Z,3.90
2022-12-01T17:28:40.774Z,3.90
2022-12-01T17:31:10.625Z,3.80
2022-12-01T17:33:39.235Z,3.80
2022-12-01T17:36:13.422Z,3.80
2022-12-01T17:38:43.284Z,3.70
2022-12-01T17:41:14.279Z,3.60
2022-12-01T17:43:41.716Z,3.70
2022-12-01T17:46:11.705Z,3.50
2022-12-01T17:48:45.233Z,3.50
2022-12-01T17:51:13.656Z,3.50
2022-12-01T17:53:40.719Z,3.40
2022-12-01T17:56:14.712Z,3.40
2022-12-01T17:58:42.537Z,3.30
2022-12-01T18:01:16.040Z,3.20
2022-12-01T18:03:43.373Z,3.20
2022-12-01T18:06:10.471Z,3.20
2022-12-01T18:08:38.599Z,3.10
2022-12-01T18:11:08.462Z,3.20
2022-12-01T18:13:46.999Z,3.20
2022-12-01T18:16:18.666Z,3.20
2022-12-01T18:18:46.287Z,3.20
2022-12-01T18:21:16.967Z,3.30
2022-12-01T18:23:50.934Z,3.30
2022-12-01T18:26:20.530Z,3.30
2022-12-01T18:28:48.308Z,5.90
2022-12-01T18:31:16.521Z,3.30
2022-12-01T18:33:45.384Z,3.30
2022-12-01T18:36:33.567Z,3.30
2022-12-01T18:39:02.072Z,3.30
2022-12-01T18:41:29.347Z,3.20
2022-12-01T18:43:56.602Z,3.30
2022-12-01T18:46:23.694Z,3.10
2022-12-01T18:49:02.149Z,3.00
2022-12-01T18:51:35.644Z,3.00
2022-12-01T18:54:05.219Z,3.00
2022-12-01T18:56:32.555Z,2.90
2022-12-01T18:59:03.601Z,2.90
2022-12-01T19:01:41.151Z,2.80
2022-12-01T19:04:09.607Z,2.70
2022-12-01T19:06:39.438Z,2.60
2022-12-01T19:09:09.452Z,2.60
2022-12-01T19:11:36.960Z,2.60
2022-12-01T19:19:00.804Z,2.40
2022-12-01T19:26:23.154Z,2.40
2022-12-01T19:31:23.690Z,2.40
2022-12-01T19:33:52.596Z,2.30
2022-12-01T19:36:23.501Z,2.30
2022-12-01T19:38:51.055Z,2.30
2022-12-01T19:41:20.720Z,2.20
2022-12-01T19:43:48.474Z,2.20
2022-12-01T19:46:18.999Z,2.20
2022-12-01T19:48:47.516Z,2.20
2022-12-01T19:51:31.598Z,2.10
2022-12-01T19:53:58.818Z,2.10
2022-12-01T19:56:25.890Z,2.00
2022-12-01T20:01:21.556Z,2.00
2022-12-01T20:03:51.479Z,1.90
2022-12-01T20:06:28.054Z,2.00
2022-12-01T20:08:58.314Z,2.00
2022-12-01T20:13:53.324Z,1.80
2022-12-01T20:16:23.563Z,1.90
2022-12-01T20:18:51.659Z,1.80
2022-12-01T20:21:26.567Z,1.90
2022-12-01T20:24:06.192Z,1.90
2022-12-01T20:26:46.546Z,1.80
2022-12-01T20:29:20.893Z,1.80
2022-12-01T20:34:31.558Z,1.80
2022-12-01T20:36:58.545Z,1.70
2022-12-01T20:46:49.011Z,1.70
2022-12-01T20:49:17.608Z,1.60
2022-12-01T20:51:44.929Z,1.70
2022-12-01T20:54:30.406Z,1.70
2022-12-01T20:56:58.671Z,1.60
2022-12-01T21:04:20.960Z,1.60
2022-12-01T21:09:18.064Z,1.60
2022-12-01T21:12:09.150Z,1.60
2022-12-01T21:15:17.852Z,1.60
2022-12-01T21:18:01.323Z,1.60
2022-12-01T21:20:36.390Z,1.60
2022-12-01T21:23:12.405Z,1.50
2022-12-01T21:25:41.681Z,1.60
2022-12-01T21:28:22.402Z,1.50
2022-12-01T21:30:54.780Z,1.50
2022-12-01T21:33:37.078Z,1.50
2022-12-01T21:36:18.236Z,1.50
2022-12-01T21:38:45.967Z,1.50
2022-12-01T21:41:28.108Z,1.50
2022-12-01T21:44:01.380Z,1.40
2022-12-01T21:46:28.648Z,1.40
2022-12-01T21:48:55.729Z,1.40
2022-12-01T21:51:24.604Z,1.40
2022-12-01T21:53:54.357Z,1.30
2022-12-01T21:56:25.539Z,1.30
2022-12-01T21:58:55.640Z,1.20
2022-12-01T22:01:32.028Z,1.10
2022-12-01T22:04:02.462Z,1.10
2022-12-01T22:06:40.340Z,1.10
2022-12-01T22:09:33.662Z,1.10
2022-12-01T22:12:34.129Z,1.10
2022-12-01T22:15:13.875Z,1.20
2022-12-01T22:17:40.760Z,1.00
2022-12-01T22:20:22.733Z,1.10
2022-12-01T22:22:49.670Z,1.20
2022-12-01T22:30:22.770Z,0.90
2022-12-01T22:32:59.786Z,1.00
2022-12-01T22:35:39.540Z,1.00
2022-12-01T22:40:48.916Z,0.90
2022-12-01T22:46:00.321Z,0.90
2022-12-01T22:50:55.351Z,1.00
2022-12-01T22:53:29.900Z,2.10
2022-12-01T22:56:00.361Z,0.90
2022-12-01T23:01:03.084Z,0.80
2022-12-01T23:03:30.074Z,0.80
2022-12-01T23:05:57.595Z,0.80
2022-12-01T23:08:25.024Z,0.80
2022-12-01T23:13:23.280Z,0.70
2022-12-01T23:15:53.716Z,0.70
2022-12-01T23:20:55.241Z,0.70
2022-12-01T23:23:34.606Z,0.60
2022-12-01T23:26:08.342Z,0.60
2022-12-01T23:28:38.634Z,0.60
2022-12-01T23:33:35.129Z,0.60
2022-12-01T23:36:25.815Z,0.60
2022-12-01T23:38:58.884Z,0.60
2022-12-01T23:41:35.856Z,0.60
2022-12-01T23:44:21.693Z,0.50
2022-12-01T23:46:55.069Z,0.50
2022-12-01T23:49:31.143Z,0.50
2022-12-01T23:52:01.424Z,0.50
2022-12-01T23:54:32.445Z,0.50
2022-12-01T23:57:04.268Z,0.40
2022-12-01T23:59:32.130Z,0.40
